Capt. Potter — WDE2308 — position and weather

sailwx.info

Track history (hours):
 
Tides and Currents Weather Stations Pressure Air Temp Water Temp Dewpoint Dewpoint Depression Visibility Wind Speed Wind Dir Waves Ship Positions

Capt. Potter

Owner: Siddie Golden, Inc, Lowland, NC. More information available from US FCC via Universal Licensing System and Coast Guard Vessel Documentation Center.

Last reported at 2017-Sep-16 17:31 UTC. Time now 2017-Sep-25 00:39 UTC.
Position N 34°50' W 076°41'.
Warning: this ship's position is 8 days out of date.

Length 30 m.

Type: Fishing. MMSI: 367323270.

Date/timePositionNaut miles runAvg speedWind from/ knotsBaromVisibWave heightAir tempDewpointWater temp
2017-Sep-16 17:31N 34°50' W 076°41'3 6.1
2017-Sep-16 17:01N 34°47' W 076°41'3 7.0
2017-Sep-16 16:31N 34°44' W 076°42'3 6.3
2017-Sep-16 16:00N 34°41' W 076°40'4 7.0
2017-Sep-16 15:30N 34°38' W 076°38'  
2017-Sep-14 08:25N 38°56' W 074°41'3 6.8
2017-Sep-14 08:00N 38°56' W 074°38'3 6.9
2017-Sep-14 07:31N 38°56' W 074°33'4 6.9
2017-Sep-14 07:00N 38°57' W 074°29'4 6.9
2017-Sep-14 06:30N 38°57' W 074°24'3 6.9
2017-Sep-14 06:00N 38°57' W 074°20'42 1.8
2017-Sep-13 06:24N 38°56' W 073°26'0 0.0
2017-Sep-13 06:00N 38°56' W 073°26'0 0.0
2017-Sep-13 04:24N 38°56' W 073°26'0 0.1
2017-Sep-13 03:48N 38°56' W 073°26'0 0.1
2017-Sep-13 03:30N 38°56' W 073°26'0 0.0
2017-Sep-13 03:00N 38°56' W 073°26'0 0.1
2017-Sep-13 02:26N 38°56' W 073°26'1 2.5
2017-Sep-13 02:00N 38°57' W 073°25'1 1.1
2017-Sep-13 01:30N 38°58' W 073°25'1 0.7
2017-Sep-13 00:25N 38°58' W 073°25'  
Track history (hours):
 
Tides and Currents Weather Stations Pressure Air Temp Water Temp Dewpoint Dewpoint Depression Visibility Wind Speed Wind Dir Waves Ship Positions

Capt. Potter

Owner: Siddie Golden, Inc, Lowland, NC. More information available from US FCC via Universal Licensing System and Coast Guard Vessel Documentation Center.

Last reported at 2017-Sep-16 17:31 UTC. Time now 2017-Sep-25 00:39 UTC.
Position N 34°50' W 076°41'.
Warning: this ship's position is 8 days out of date.

Length 30 m.

Type: Fishing. MMSI: 367323270.

Date/timePositionNaut miles runAvg speedWind from/ knotsBaromVisibWave heightAir tempDewpointWater temp
2017-Sep-16 17:31N 34°50' W 076°41'3 6.1
2017-Sep-16 17:01N 34°47' W 076°41'3 7.0
2017-Sep-16 16:31N 34°44' W 076°42'3 6.3
2017-Sep-16 16:00N 34°41' W 076°40'4 7.0
2017-Sep-16 15:30N 34°38' W 076°38'  
2017-Sep-14 08:25N 38°56' W 074°41'3 6.8
2017-Sep-14 08:00N 38°56' W 074°38'3 6.9
2017-Sep-14 07:31N 38°56' W 074°33'4 6.9
2017-Sep-14 07:00N 38°57' W 074°29'4 6.9
2017-Sep-14 06:30N 38°57' W 074°24'3 6.9
2017-Sep-14 06:00N 38°57' W 074°20'42 1.8
2017-Sep-13 06:24N 38°56' W 073°26'0 0.0
2017-Sep-13 06:00N 38°56' W 073°26'0 0.0
2017-Sep-13 04:24N 38°56' W 073°26'0 0.1
2017-Sep-13 03:48N 38°56' W 073°26'0 0.1
2017-Sep-13 03:30N 38°56' W 073°26'0 0.0
2017-Sep-13 03:00N 38°56' W 073°26'0 0.1
2017-Sep-13 02:26N 38°56' W 073°26'1 2.5
2017-Sep-13 02:00N 38°57' W 073°25'1 1.1
2017-Sep-13 01:30N 38°58' W 073°25'1 0.7
2017-Sep-13 00:25N 38°58' W 073°25'  

Dump ship's entire track history